sensor_id;sensor_type;location;lat;lon;timestamp;temperature;humidity
12309;DHT22;6217;48.150;17.142;2022-08-03T00:00:39;23.30;57.70
12309;DHT22;6217;48.150;17.142;2022-08-03T00:04:45;23.30;58.00
12309;DHT22;6217;48.150;17.142;2022-08-03T00:08:51;23.20;58.80
12309;DHT22;6217;48.150;17.142;2022-08-03T00:12:58;23.20;58.50
12309;DHT22;6217;48.150;17.142;2022-08-03T00:17:04;23.10;58.70
12309;DHT22;6217;48.150;17.142;2022-08-03T00:21:10;23.00;58.90
12309;DHT22;6217;48.150;17.142;2022-08-03T00:25:17;23.00;59.10
12309;DHT22;6217;48.150;17.142;2022-08-03T00:29:23;22.90;59.20
12309;DHT22;6217;48.150;17.142;2022-08-03T00:33:29;22.90;59.50
12309;DHT22;6217;48.150;17.142;2022-08-03T00:37:35;22.90;59.80
12309;DHT22;6217;48.150;17.142;2022-08-03T00:41:41;22.90;60.00
12309;DHT22;6217;48.150;17.142;2022-08-03T00:45:48;22.80;60.00
12309;DHT22;6217;48.150;17.142;2022-08-03T00:49:54;22.80;60.00
12309;DHT22;6217;48.150;17.142;2022-08-03T00:54:00;22.80;60.20
12309;DHT22;6217;48.150;17.142;2022-08-03T00:58:07;22.80;60.40
12309;DHT22;6217;48.150;17.142;2022-08-03T01:02:15;22.80;60.40
12309;DHT22;6217;48.150;17.142;2022-08-03T01:06:40;22.80;60.60
12309;DHT22;6217;48.150;17.142;2022-08-03T01:15:53;22.70;61.60
12309;DHT22;6217;48.150;17.142;2022-08-03T01:20:09;22.70;61.90
12309;DHT22;6217;48.150;17.142;2022-08-03T01:33:43;22.50;62.70
12309;DHT22;6217;48.150;17.142;2022-08-03T01:37:56;22.50;62.90
12309;DHT22;6217;48.150;17.142;2022-08-03T01:42:05;22.50;63.10
12309;DHT22;6217;48.150;17.142;2022-08-03T01:46:13;22.40;63.30
12309;DHT22;6217;48.150;17.142;2022-08-03T01:50:23;22.40;63.70
12309;DHT22;6217;48.150;17.142;2022-08-03T01:54:39;22.40;64.00
12309;DHT22;6217;48.150;17.142;2022-08-03T01:58:48;22.30;64.70
12309;DHT22;6217;48.150;17.142;2022-08-03T02:02:56;22.30;65.00
12309;DHT22;6217;48.150;17.142;2022-08-03T02:07:03;22.20;65.40
12309;DHT22;6217;48.150;17.142;2022-08-03T02:11:10;22.20;65.80
12309;DHT22;6217;48.150;17.142;2022-08-03T02:15:17;22.10;66.00
12309;DHT22;6217;48.150;17.142;2022-08-03T02:19:25;22.10;66.40
12309;DHT22;6217;48.150;17.142;2022-08-03T02:23:32;22.10;66.80
12309;DHT22;6217;48.150;17.142;2022-08-03T02:27:43;22.10;67.10
12309;DHT22;6217;48.150;17.142;2022-08-03T02:31:51;22.10;67.70
12309;DHT22;6217;48.150;17.142;2022-08-03T02:36:00;22.10;68.00
12309;DHT22;6217;48.150;17.142;2022-08-03T02:40:08;22.10;68.30
12309;DHT22;6217;48.150;17.142;2022-08-03T02:44:19;22.00;68.60
12309;DHT22;6217;48.150;17.142;2022-08-03T02:48:28;22.00;69.10
12309;DHT22;6217;48.150;17.142;2022-08-03T02:52:36;21.90;69.50
12309;DHT22;6217;48.150;17.142;2022-08-03T02:56:45;21.90;70.00
12309;DHT22;6217;48.150;17.142;2022-08-03T03:00:52;21.90;70.70
12309;DHT22;6217;48.150;17.142;2022-08-03T03:04:59;21.90;71.30
12309;DHT22;6217;48.150;17.142;2022-08-03T03:09:07;21.90;71.90
12309;DHT22;6217;48.150;17.142;2022-08-03T03:13:15;21.80;72.50
12309;DHT22;6217;48.150;17.142;2022-08-03T03:17:23;21.70;73.20
12309;DHT22;6217;48.150;17.142;2022-08-03T03:21:29;21.70;73.90
12309;DHT22;6217;48.150;17.142;2022-08-03T03:25:37;21.70;74.40
12309;DHT22;6217;48.150;17.142;2022-08-03T03:29:44;21.60;74.80
12309;DHT22;6217;48.150;17.142;2022-08-03T03:33:51;21.60;75.40
12309;DHT22;6217;48.150;17.142;2022-08-03T03:37:57;21.60;75.90
12309;DHT22;6217;48.150;17.142;2022-08-03T03:42:04;21.50;76.40
12309;DHT22;6217;48.150;17.142;2022-08-03T03:46:13;21.40;76.80
12309;DHT22;6217;48.150;17.142;2022-08-03T03:50:21;21.50;77.20
12309;DHT22;6217;48.150;17.142;2022-08-03T03:54:38;21.50;77.20
12309;DHT22;6217;48.150;17.142;2022-08-03T03:58:48;21.50;77.80
12309;DHT22;6217;48.150;17.142;2022-08-03T04:02:54;21.50;76.90
12309;DHT22;6217;48.150;17.142;2022-08-03T04:07:01;21.60;77.00
12309;DHT22;6217;48.150;17.142;2022-08-03T04:11:29;21.60;77.70
12309;DHT22;6217;48.150;17.142;2022-08-03T04:15:40;21.60;78.40
12309;DHT22;6217;48.150;17.142;2022-08-03T04:19:49;21.70;78.10
12309;DHT22;6217;48.150;17.142;2022-08-03T04:24:01;21.80;78.10
12309;DHT22;6217;48.150;17.142;2022-08-03T04:28:08;21.90;77.90
12309;DHT22;6217;48.150;17.142;2022-08-03T04:32:16;22.00;77.70
12309;DHT22;6217;48.150;17.142;2022-08-03T04:36:25;22.10;77.30
12309;DHT22;6217;48.150;17.142;2022-08-03T04:40:33;22.70;76.20
12309;DHT22;6217;48.150;17.142;2022-08-03T04:44:41;23.70;73.50
12309;DHT22;6217;48.150;17.142;2022-08-03T04:48:50;23.70;72.20
12309;DHT22;6217;48.150;17.142;2022-08-03T04:52:56;23.50;72.80
12309;DHT22;6217;48.150;17.142;2022-08-03T04:57:02;23.40;73.10
12309;DHT22;6217;48.150;17.142;2022-08-03T05:01:08;23.40;73.10
12309;DHT22;6217;48.150;17.142;2022-08-03T05:05:15;23.60;72.70
12309;DHT22;6217;48.150;17.142;2022-08-03T05:09:22;23.70;72.00
12309;DHT22;6217;48.150;17.142;2022-08-03T05:13:28;23.70;72.10
12309;DHT22;6217;48.150;17.142;2022-08-03T05:17:35;23.80;71.50
12309;DHT22;6217;48.150;17.142;2022-08-03T05:21:41;24.00;71.10
12309;DHT22;6217;48.150;17.142;2022-08-03T05:25:47;24.10;70.00
12309;DHT22;6217;48.150;17.142;2022-08-03T05:29:54;24.20;68.60
12309;DHT22;6217;48.150;17.142;2022-08-03T05:34:00;24.30;67.40
12309;DHT22;6217;48.150;17.142;2022-08-03T05:38:06;24.40;66.40
12309;DHT22;6217;48.150;17.142;2022-08-03T05:42:14;24.50;65.40
12309;DHT22;6217;48.150;17.142;2022-08-03T05:46:24;24.60;64.40
12309;DHT22;6217;48.150;17.142;2022-08-03T05:50:30;24.80;63.80
12309;DHT22;6217;48.150;17.142;2022-08-03T05:54:36;25.70;61.60
12309;DHT22;6217;48.150;17.142;2022-08-03T05:58:44;25.70;60.30
12309;DHT22;6217;48.150;17.142;2022-08-03T06:02:50;26.00;59.50
12309;DHT22;6217;48.150;17.142;2022-08-03T06:06:56;26.50;59.30
12309;DHT22;6217;48.150;17.142;2022-08-03T06:11:06;27.30;57.20
12309;DHT22;6217;48.150;17.142;2022-08-03T06:15:12;27.50;56.00
12309;DHT22;6217;48.150;17.142;2022-08-03T06:19:19;28.50;54.70
12309;DHT22;6217;48.150;17.142;2022-08-03T06:23:25;30.50;50.90
12309;DHT22;6217;48.150;17.142;2022-08-03T06:27:31;30.10;49.00
12309;DHT22;6217;48.150;17.142;2022-08-03T06:31:37;29.20;51.00
12309;DHT22;6217;48.150;17.142;2022-08-03T06:35:43;28.70;51.40
12309;DHT22;6217;48.150;17.142;2022-08-03T06:39:49;28.10;52.40
12309;DHT22;6217;48.150;17.142;2022-08-03T06:43:56;27.90;52.30
12309;DHT22;6217;48.150;17.142;2022-08-03T06:52:12;28.00;51.10
12309;DHT22;6217;48.150;17.142;2022-08-03T06:56:18;28.50;51.20
12309;DHT22;6217;48.150;17.142;2022-08-03T07:00:26;30.50;48.60
12309;DHT22;6217;48.150;17.142;2022-08-03T07:04:32;30.50;46.40
12309;DHT22;6217;48.150;17.142;2022-08-03T07:08:39;29.70;47.70
12309;DHT22;6217;48.150;17.142;2022-08-03T07:12:45;29.20;48.80
12309;DHT22;6217;48.150;17.142;2022-08-03T07:16:52;28.70;49.50
12309;DHT22;6217;48.150;17.142;2022-08-03T07:20:58;28.40;50.30
12309;DHT22;6217;48.150;17.142;2022-08-03T07:25:05;28.30;51.00
12309;DHT22;6217;48.150;17.142;2022-08-03T07:29:11;28.40;51.10
12309;DHT22;6217;48.150;17.142;2022-08-03T07:33:17;28.50;51.00
12309;DHT22;6217;48.150;17.142;2022-08-03T07:37:23;28.70;50.80
12309;DHT22;6217;48.150;17.142;2022-08-03T07:41:30;29.20;50.40
12309;DHT22;6217;48.150;17.142;2022-08-03T07:45:36;29.70;49.70
12309;DHT22;6217;48.150;17.142;2022-08-03T07:49:42;30.40;48.90
12309;DHT22;6217;48.150;17.142;2022-08-03T07:53:48;30.90;47.50
12309;DHT22;6217;48.150;17.142;2022-08-03T07:58:06;30.60;47.90
12309;DHT22;6217;48.150;17.142;2022-08-03T08:02:14;30.80;46.90
12309;DHT22;6217;48.150;17.142;2022-08-03T08:06:21;30.50;47.60
12309;DHT22;6217;48.150;17.142;2022-08-03T08:10:27;30.40;47.80
12309;DHT22;6217;48.150;17.142;2022-08-03T08:14:34;30.30;47.70
12309;DHT22;6217;48.150;17.142;2022-08-03T08:18:40;30.60;47.70
12309;DHT22;6217;48.150;17.142;2022-08-03T08:22:46;30.90;46.50
12309;DHT22;6217;48.150;17.142;2022-08-03T08:26:52;30.70;46.40
12309;DHT22;6217;48.150;17.142;2022-08-03T08:31:00;30.40;46.20
12309;DHT22;6217;48.150;17.142;2022-08-03T08:35:07;30.20;46.30
12309;DHT22;6217;48.150;17.142;2022-08-03T08:39:13;30.00;46.30
12309;DHT22;6217;48.150;17.142;2022-08-03T08:43:20;29.70;46.00
12309;DHT22;6217;48.150;17.142;2022-08-03T08:47:29;29.60;46.30
12309;DHT22;6217;48.150;17.142;2022-08-03T08:51:37;29.70;46.40
12309;DHT22;6217;48.150;17.142;2022-08-03T08:55:46;29.70;46.10
12309;DHT22;6217;48.150;17.142;2022-08-03T08:59:53;29.80;46.00
12309;DHT22;6217;48.150;17.142;2022-08-03T09:04:05;29.90;45.60
12309;DHT22;6217;48.150;17.142;2022-08-03T09:08:11;29.80;45.10
12309;DHT22;6217;48.150;17.142;2022-08-03T09:12:18;29.90;44.80
12309;DHT22;6217;48.150;17.142;2022-08-03T09:16:24;29.80;44.50
12309;DHT22;6217;48.150;17.142;2022-08-03T09:20:33;29.80;44.70
12309;DHT22;6217;48.150;17.142;2022-08-03T09:24:57;29.90;44.30
12309;DHT22;6217;48.150;17.142;2022-08-03T09:29:08;29.90;44.10
12309;DHT22;6217;48.150;17.142;2022-08-03T09:33:14;30.00;44.50
12309;DHT22;6217;48.150;17.142;2022-08-03T09:37:21;30.10;44.50
12309;DHT22;6217;48.150;17.142;2022-08-03T09:41:30;30.40;44.30
12309;DHT22;6217;48.150;17.142;2022-08-03T09:45:38;30.50;43.70
12309;DHT22;6217;48.150;17.142;2022-08-03T09:50:14;30.60;43.10
12309;DHT22;6217;48.150;17.142;2022-08-03T09:54:30;30.60;42.80
12309;DHT22;6217;48.150;17.142;2022-08-03T09:58:46;30.60;42.20
12309;DHT22;6217;48.150;17.142;2022-08-03T10:03:03;30.60;41.90
12309;DHT22;6217;48.150;17.142;2022-08-03T10:07:10;30.80;42.00
12309;DHT22;6217;48.150;17.142;2022-08-03T10:11:29;30.80;41.50
12309;DHT22;6217;48.150;17.142;2022-08-03T10:15:38;30.80;41.10
12309;DHT22;6217;48.150;17.142;2022-08-03T10:19:45;30.80;41.20
12309;DHT22;6217;48.150;17.142;2022-08-03T10:23:53;30.90;41.20
12309;DHT22;6217;48.150;17.142;2022-08-03T10:28:01;30.90;41.20
12309;DHT22;6217;48.150;17.142;2022-08-03T10:32:21;30.90;40.90
12309;DHT22;6217;48.150;17.142;2022-08-03T10:36:33;30.70;40.20
12309;DHT22;6217;48.150;17.142;2022-08-03T10:40:41;30.80;40.40
12309;DHT22;6217;48.150;17.142;2022-08-03T10:44:51;30.90;40.20
12309;DHT22;6217;48.150;17.142;2022-08-03T10:49:17;31.00;40.00
12309;DHT22;6217;48.150;17.142;2022-08-03T10:53:39;31.20;39.70
12309;DHT22;6217;48.150;17.142;2022-08-03T11:01:56;31.30;39.30
12309;DHT22;6217;48.150;17.142;2022-08-03T11:06:16;31.30;39.40
12309;DHT22;6217;48.150;17.142;2022-08-03T11:10:30;31.40;39.20
12309;DHT22;6217;48.150;17.142;2022-08-03T11:14:46;31.50;39.70
12309;DHT22;6217;48.150;17.142;2022-08-03T11:18:58;31.40;38.80
12309;DHT22;6217;48.150;17.142;2022-08-03T11:23:05;31.30;38.70
12309;DHT22;6217;48.150;17.142;2022-08-03T11:27:22;31.30;38.80
12309;DHT22;6217;48.150;17.142;2022-08-03T11:35:57;31.50;38.40
12309;DHT22;6217;48.150;17.142;2022-08-03T11:40:05;31.70;38.20
12309;DHT22;6217;48.150;17.142;2022-08-03T11:44:38;31.60;37.90
12309;DHT22;6217;48.150;17.142;2022-08-03T11:48:46;31.50;37.80
12309;DHT22;6217;48.150;17.142;2022-08-03T11:52:54;31.70;38.00
12309;DHT22;6217;48.150;17.142;2022-08-03T11:57:00;31.70;37.50
12309;DHT22;6217;48.150;17.142;2022-08-03T12:01:06;31.60;37.10
12309;DHT22;6217;48.150;17.142;2022-08-03T12:05:15;31.60;37.10
12309;DHT22;6217;48.150;17.142;2022-08-03T12:09:21;31.60;36.90
12309;DHT22;6217;48.150;17.142;2022-08-03T12:13:36;31.60;37.00
12309;DHT22;6217;48.150;17.142;2022-08-03T12:17:44;31.80;36.60
12309;DHT22;6217;48.150;17.142;2022-08-03T12:21:50;31.90;36.70
12309;DHT22;6217;48.150;17.142;2022-08-03T12:26:01;32.00;36.50
12309;DHT22;6217;48.150;17.142;2022-08-03T12:30:12;32.00;36.20
12309;DHT22;6217;48.150;17.142;2022-08-03T12:34:19;31.90;36.10
12309;DHT22;6217;48.150;17.142;2022-08-03T12:38:25;32.00;36.30
12309;DHT22;6217;48.150;17.142;2022-08-03T12:42:36;32.00;36.20
12309;DHT22;6217;48.150;17.142;2022-08-03T12:46:43;31.90;35.80
12309;DHT22;6217;48.150;17.142;2022-08-03T12:50:50;32.00;35.90
12309;DHT22;6217;48.150;17.142;2022-08-03T12:54:59;31.90;35.80
12309;DHT22;6217;48.150;17.142;2022-08-03T12:59:25;31.50;36.00
12309;DHT22;6217;48.150;17.142;2022-08-03T13:03:43;31.30;36.20
12309;DHT22;6217;48.150;17.142;2022-08-03T13:07:51;31.30;36.30
12309;DHT22;6217;48.150;17.142;2022-08-03T13:12:13;31.70;36.00
12309;DHT22;6217;48.150;17.142;2022-08-03T13:16:22;31.90;36.30
12309;DHT22;6217;48.150;17.142;2022-08-03T13:20:29;32.10;36.50
12309;DHT22;6217;48.150;17.142;2022-08-03T13:24:35;32.30;36.10
12309;DHT22;6217;48.150;17.142;2022-08-03T13:28:41;32.50;35.60
12309;DHT22;6217;48.150;17.142;2022-08-03T13:32:47;32.50;35.50
12309;DHT22;6217;48.150;17.142;2022-08-03T13:36:54;32.60;35.50
12309;DHT22;6217;48.150;17.142;2022-08-03T13:41:01;32.50;35.20
12309;DHT22;6217;48.150;17.142;2022-08-03T13:45:08;32.40;35.20
12309;DHT22;6217;48.150;17.142;2022-08-03T13:49:16;32.10;35.50
12309;DHT22;6217;48.150;17.142;2022-08-03T13:53:22;32.10;35.60
12309;DHT22;6217;48.150;17.142;2022-08-03T13:57:28;32.00;35.40
12309;DHT22;6217;48.150;17.142;2022-08-03T14:01:35;31.80;35.50
12309;DHT22;6217;48.150;17.142;2022-08-03T14:05:42;31.50;35.70
12309;DHT22;6217;48.150;17.142;2022-08-03T14:09:48;31.30;36.00
12309;DHT22;6217;48.150;17.142;2022-08-03T14:13:54;31.30;36.30
12309;DHT22;6217;48.150;17.142;2022-08-03T14:18:00;31.40;36.40
12309;DHT22;6217;48.150;17.142;2022-08-03T14:22:07;31.50;36.30
12309;DHT22;6217;48.150;17.142;2022-08-03T14:26:13;31.50;36.30
12309;DHT22;6217;48.150;17.142;2022-08-03T14:30:19;31.50;36.30
12309;DHT22;6217;48.150;17.142;2022-08-03T14:34:25;31.50;36.00
12309;DHT22;6217;48.150;17.142;2022-08-03T14:38:32;31.60;36.10
12309;DHT22;6217;48.150;17.142;2022-08-03T14:42:38;31.70;35.90
12309;DHT22;6217;48.150;17.142;2022-08-03T14:46:44;31.70;36.20
12309;DHT22;6217;48.150;17.142;2022-08-03T14:50:51;31.80;36.40
12309;DHT22;6217;48.150;17.142;2022-08-03T14:54:58;31.80;36.50
12309;DHT22;6217;48.150;17.142;2022-08-03T14:59:04;31.70;36.50
12309;DHT22;6217;48.150;17.142;2022-08-03T15:03:10;31.60;37.20
12309;DHT22;6217;48.150;17.142;2022-08-03T15:07:17;31.60;36.40
12309;DHT22;6217;48.150;17.142;2022-08-03T15:11:23;31.60;36.40
12309;DHT22;6217;48.150;17.142;2022-08-03T15:15:29;31.50;36.50
12309;DHT22;6217;48.150;17.142;2022-08-03T15:19:36;31.40;36.60
12309;DHT22;6217;48.150;17.142;2022-08-03T15:23:42;31.30;36.90
12309;DHT22;6217;48.150;17.142;2022-08-03T15:27:48;31.30;37.10
12309;DHT22;6217;48.150;17.142;2022-08-03T15:31:54;31.20;37.10
12309;DHT22;6217;48.150;17.142;2022-08-03T15:36:01;31.10;36.90
12309;DHT22;6217;48.150;17.142;2022-08-03T15:40:08;31.00;36.90
12309;DHT22;6217;48.150;17.142;2022-08-03T15:44:18;31.00;36.80
12309;DHT22;6217;48.150;17.142;2022-08-03T15:48:24;31.00;36.70
12309;DHT22;6217;48.150;17.142;2022-08-03T15:52:30;30.90;36.80
12309;DHT22;6217;48.150;17.142;2022-08-03T15:56:36;30.80;36.90
12309;DHT22;6217;48.150;17.142;2022-08-03T16:00:43;30.70;37.10
12309;DHT22;6217;48.150;17.142;2022-08-03T16:04:49;30.60;37.10
12309;DHT22;6217;48.150;17.142;2022-08-03T16:08:56;30.50;37.00
12309;DHT22;6217;48.150;17.142;2022-08-03T16:13:02;30.50;37.00
12309;DHT22;6217;48.150;17.142;2022-08-03T16:17:09;30.60;37.10
12309;DHT22;6217;48.150;17.142;2022-08-03T16:21:15;30.60;37.00
12309;DHT22;6217;48.150;17.142;2022-08-03T16:25:21;30.60;37.00
12309;DHT22;6217;48.150;17.142;2022-08-03T16:29:27;30.60;36.90
12309;DHT22;6217;48.150;17.142;2022-08-03T16:33:34;30.60;36.80
12309;DHT22;6217;48.150;17.142;2022-08-03T16:37:41;30.60;36.80
12309;DHT22;6217;48.150;17.142;2022-08-03T16:41:47;30.70;36.90
12309;DHT22;6217;48.150;17.142;2022-08-03T16:45:53;30.70;37.30
12309;DHT22;6217;48.150;17.142;2022-08-03T16:50:00;30.70;37.60
12309;DHT22;6217;48.150;17.142;2022-08-03T16:54:06;30.70;37.50
12309;DHT22;6217;48.150;17.142;2022-08-03T16:58:12;30.80;37.50
12309;DHT22;6217;48.150;17.142;2022-08-03T17:02:24;30.80;37.60
12309;DHT22;6217;48.150;17.142;2022-08-03T17:06:37;30.80;37.40
12309;DHT22;6217;48.150;17.142;2022-08-03T17:10:43;30.80;37.60
12309;DHT22;6217;48.150;17.142;2022-08-03T17:14:50;30.80;37.30
12309;DHT22;6217;48.150;17.142;2022-08-03T17:18:58;30.80;37.30
12309;DHT22;6217;48.150;17.142;2022-08-03T17:23:35;30.80;37.40
12309;DHT22;6217;48.150;17.142;2022-08-03T17:27:45;30.70;37.50
12309;DHT22;6217;48.150;17.142;2022-08-03T17:31:55;30.70;37.40
12309;DHT22;6217;48.150;17.142;2022-08-03T17:36:01;30.60;37.10
12309;DHT22;6217;48.150;17.142;2022-08-03T17:40:11;30.50;37.20
12309;DHT22;6217;48.150;17.142;2022-08-03T17:44:17;30.40;37.30
12309;DHT22;6217;48.150;17.142;2022-08-03T17:48:23;30.30;37.30
12309;DHT22;6217;48.150;17.142;2022-08-03T17:52:34;30.20;37.20
12309;DHT22;6217;48.150;17.142;2022-08-03T18:01:25;29.80;37.30
12309;DHT22;6217;48.150;17.142;2022-08-03T18:06:03;29.70;37.50
12309;DHT22;6217;48.150;17.142;2022-08-03T18:10:13;29.50;37.60
12309;DHT22;6217;48.150;17.142;2022-08-03T18:14:30;29.40;37.60
12309;DHT22;6217;48.150;17.142;2022-08-03T18:18:43;29.30;37.60
12309;DHT22;6217;48.150;17.142;2022-08-03T18:22:50;29.20;37.80
12309;DHT22;6217;48.150;17.142;2022-08-03T18:26:58;29.10;38.10
12309;DHT22;6217;48.150;17.142;2022-08-03T18:31:08;29.00;38.30
12309;DHT22;6217;48.150;17.142;2022-08-03T18:35:18;29.00;38.50
12309;DHT22;6217;48.150;17.142;2022-08-03T18:39:27;28.90;38.60
12309;DHT22;6217;48.150;17.142;2022-08-03T18:43:42;28.80;38.80
12309;DHT22;6217;48.150;17.142;2022-08-03T18:48:10;28.70;39.30
12309;DHT22;6217;48.150;17.142;2022-08-03T18:52:20;28.60;39.60
12309;DHT22;6217;48.150;17.142;2022-08-03T18:56:42;28.50;39.90
12309;DHT22;6217;48.150;17.142;2022-08-03T19:01:38;28.40;40.00
12309;DHT22;6217;48.150;17.142;2022-08-03T19:06:05;28.30;40.30
12309;DHT22;6217;48.150;17.142;2022-08-03T19:10:11;28.20;40.30
12309;DHT22;6217;48.150;17.142;2022-08-03T19:14:23;28.20;40.40
12309;DHT22;6217;48.150;17.142;2022-08-03T19:18:32;28.10;40.50
12309;DHT22;6217;48.150;17.142;2022-08-03T19:22:39;28.00;40.40
12309;DHT22;6217;48.150;17.142;2022-08-03T19:26:47;27.90;40.40
12309;DHT22;6217;48.150;17.142;2022-08-03T19:30:54;27.80;40.60
12309;DHT22;6217;48.150;17.142;2022-08-03T19:35:03;27.80;40.70
12309;DHT22;6217;48.150;17.142;2022-08-03T19:39:10;27.70;40.70
12309;DHT22;6217;48.150;17.142;2022-08-03T19:43:25;27.60;40.70
12309;DHT22;6217;48.150;17.142;2022-08-03T19:47:35;27.60;40.70
12309;DHT22;6217;48.150;17.142;2022-08-03T19:51:45;27.50;41.00
12309;DHT22;6217;48.150;17.142;2022-08-03T19:55:55;27.30;41.40
12309;DHT22;6217;48.150;17.142;2022-08-03T20:00:04;27.20;41.80
12309;DHT22;6217;48.150;17.142;2022-08-03T20:04:13;27.10;42.10
12309;DHT22;6217;48.150;17.142;2022-08-03T20:08:21;26.90;42.40
12309;DHT22;6217;48.150;17.142;2022-08-03T20:12:28;26.80;42.60
12309;DHT22;6217;48.150;17.142;2022-08-03T20:16:35;26.70;42.80
12309;DHT22;6217;48.150;17.142;2022-08-03T20:20:41;26.60;43.10
12309;DHT22;6217;48.150;17.142;2022-08-03T20:24:48;26.50;43.20
12309;DHT22;6217;48.150;17.142;2022-08-03T20:29:01;26.50;43.40
12309;DHT22;6217;48.150;17.142;2022-08-03T20:33:09;26.40;43.60
12309;DHT22;6217;48.150;17.142;2022-08-03T20:37:16;26.30;43.90
12309;DHT22;6217;48.150;17.142;2022-08-03T20:41:23;26.20;44.30
12309;DHT22;6217;48.150;17.142;2022-08-03T20:45:29;26.20;44.60
12309;DHT22;6217;48.150;17.142;2022-08-03T20:49:38;26.10;45.00
12309;DHT22;6217;48.150;17.142;2022-08-03T20:53:46;25.90;45.40
12309;DHT22;6217;48.150;17.142;2022-08-03T20:57:52;25.90;45.80
12309;DHT22;6217;48.150;17.142;2022-08-03T21:01:59;25.80;46.20
12309;DHT22;6217;48.150;17.142;2022-08-03T21:06:09;25.70;46.50
12309;DHT22;6217;48.150;17.142;2022-08-03T21:10:16;25.60;46.90
12309;DHT22;6217;48.150;17.142;2022-08-03T21:14:26;25.50;47.10
12309;DHT22;6217;48.150;17.142;2022-08-03T21:18:50;25.40;47.40
12309;DHT22;6217;48.150;17.142;2022-08-03T21:22:58;25.30;48.40
12309;DHT22;6217;48.150;17.142;2022-08-03T21:27:05;25.30;48.10
12309;DHT22;6217;48.150;17.142;2022-08-03T21:31:12;25.20;48.40
12309;DHT22;6217;48.150;17.142;2022-08-03T21:35:20;25.10;48.80
12309;DHT22;6217;48.150;17.142;2022-08-03T21:39:28;25.10;49.10
12309;DHT22;6217;48.150;17.142;2022-08-03T21:43:35;25.00;49.40
12309;DHT22;6217;48.150;17.142;2022-08-03T21:47:41;24.90;49.50
12309;DHT22;6217;48.150;17.142;2022-08-03T21:51:49;24.90;49.80
12309;DHT22;6217;48.150;17.142;2022-08-03T21:56:04;24.80;50.10
12309;DHT22;6217;48.150;17.142;2022-08-03T22:00:18;24.80;50.50
12309;DHT22;6217;48.150;17.142;2022-08-03T22:04:32;24.70;50.80
12309;DHT22;6217;48.150;17.142;2022-08-03T22:08:39;24.70;50.90
12309;DHT22;6217;48.150;17.142;2022-08-03T22:12:45;24.60;51.10
12309;DHT22;6217;48.150;17.142;2022-08-03T22:16:52;24.60;51.50
12309;DHT22;6217;48.150;17.142;2022-08-03T22:20:59;24.50;51.80
12309;DHT22;6217;48.150;17.142;2022-08-03T22:25:09;24.50;52.10
12309;DHT22;6217;48.150;17.142;2022-08-03T22:29:16;24.40;52.30
12309;DHT22;6217;48.150;17.142;2022-08-03T22:33:24;24.30;52.80
12309;DHT22;6217;48.150;17.142;2022-08-03T22:37:32;24.30;52.30
12309;DHT22;6217;48.150;17.142;2022-08-03T22:41:39;24.20;52.80
12309;DHT22;6217;48.150;17.142;2022-08-03T22:45:45;24.20;53.20
12309;DHT22;6217;48.150;17.142;2022-08-03T22:49:52;24.10;53.70
12309;DHT22;6217;48.150;17.142;2022-08-03T22:54:01;24.10;54.10
12309;DHT22;6217;48.150;17.142;2022-08-03T22:58:08;24.10;54.30
12309;DHT22;6217;48.150;17.142;2022-08-03T23:02:16;24.10;54.50
12309;DHT22;6217;48.150;17.142;2022-08-03T23:06:25;24.00;55.10
12309;DHT22;6217;48.150;17.142;2022-08-03T23:10:36;24.00;55.50
12309;DHT22;6217;48.150;17.142;2022-08-03T23:14:47;23.90;55.80
12309;DHT22;6217;48.150;17.142;2022-08-03T23:18:58;23.90;56.30
12309;DHT22;6217;48.150;17.142;2022-08-03T23:23:04;23.90;56.50
12309;DHT22;6217;48.150;17.142;2022-08-03T23:27:11;23.80;56.70
12309;DHT22;6217;48.150;17.142;2022-08-03T23:31:17;23.80;57.10
12309;DHT22;6217;48.150;17.142;2022-08-03T23:35:26;23.70;57.00
12309;DHT22;6217;48.150;17.142;2022-08-03T23:39:51;23.80;56.20
12309;DHT22;6217;48.150;17.142;2022-08-03T23:44:00;23.80;55.70
12309;DHT22;6217;48.150;17.142;2022-08-03T23:48:08;23.80;55.90
12309;DHT22;6217;48.150;17.142;2022-08-03T23:56:50;23.60;54.90
